DAL1303 KATL-KMDW
Flight info
| Callsign | DAL1303 |
|---|---|
| Flight time | 1h 33m |
| Altitude | 36000 |
| Route | VARNM2 RESPE IIU DROSE FISSK7 |
| Aircraft | A320/M-SDE3FGHIRWY/LB1 |
Departure
| Time | 2026-05-05 14:20 |
|---|---|
| Airport | Hartsfield Jackson Atlanta International Airport (KATL) |
Arrival
| Time | 2026-05-05 15:53 |
|---|---|
| Airport | Chicago Midway International Airport (KMDW) |
| Time | Latitude | Longitude | Altitude | Speed | Heading |
|---|---|---|---|---|---|
| 2026-05-05 13:54 | 33.63833 | -84.43542 | 1035 ft | 0 kts | 270° |
| 2026-05-05 14:10 | 33.63833 | -84.43538 | 1035 ft | 3 kts | 270° |
| 2026-05-05 14:10 | 33.63833 | -84.43507 | 1035 ft | 4 kts | 276° |
| 2026-05-05 14:10 | 33.63826 | -84.43477 | 1035 ft | 4 kts | 307° |
| 2026-05-05 14:10 | 33.63807 | -84.43461 | 1035 ft | 3 kts | 358° |
| 2026-05-05 14:11 | 33.63800 | -84.43461 | 1035 ft | 0 kts | 0° |
| 2026-05-05 14:13 | 33.63840 | -84.43460 | 1035 ft | 12 kts | 0° |
| 2026-05-05 14:13 | 33.63933 | -84.43461 | 1035 ft | 15 kts | 360° |
| 2026-05-05 14:13 | 33.64050 | -84.43461 | 1035 ft | 18 kts | 360° |
| 2026-05-05 14:14 | 33.64172 | -84.43461 | 1035 ft | 17 kts | 0° |
| 2026-05-05 14:14 | 33.64304 | -84.43461 | 1035 ft | 21 kts | 360° |
| 2026-05-05 14:14 | 33.64409 | -84.43459 | 1035 ft | 13 kts | 7° |
| 2026-05-05 14:14 | 33.64458 | -84.43367 | 1036 ft | 16 kts | 83° |
| 2026-05-05 14:15 | 33.64461 | -84.43222 | 1036 ft | 19 kts | 89° |
| 2026-05-05 14:15 | 33.64460 | -84.43051 | 1036 ft | 22 kts | 90° |
| 2026-05-05 14:15 | 33.64461 | -84.42859 | 1035 ft | 21 kts | 90° |
| 2026-05-05 14:15 | 33.64469 | -84.42672 | 1035 ft | 24 kts | 90° |
| 2026-05-05 14:16 | 33.64470 | -84.42476 | 1035 ft | 21 kts | 90° |
| 2026-05-05 14:16 | 33.64469 | -84.42293 | 1035 ft | 21 kts | 90° |
| 2026-05-05 14:16 | 33.64521 | -84.42156 | 1035 ft | 19 kts | 59° |
| 2026-05-05 14:16 | 33.64543 | -84.41990 | 1035 ft | 22 kts | 90° |
| 2026-05-05 14:17 | 33.64543 | -84.41793 | 1036 ft | 25 kts | 89° |
| 2026-05-05 14:17 | 33.64544 | -84.41582 | 1036 ft | 25 kts | 90° |
| 2026-05-05 14:17 | 33.64543 | -84.41366 | 1036 ft | 21 kts | 90° |
| 2026-05-05 14:17 | 33.64543 | -84.41175 | 1036 ft | 25 kts | 89° |
| 2026-05-05 14:18 | 33.64543 | -84.40975 | 1035 ft | 20 kts | 91° |
| 2026-05-05 14:18 | 33.64550 | -84.40819 | 1035 ft | 15 kts | 67° |
| 2026-05-05 14:18 | 33.64570 | -84.40687 | 1035 ft | 18 kts | 90° |
| 2026-05-05 14:18 | 33.64588 | -84.40579 | 1034 ft | 8 kts | 15° |
| 2026-05-05 14:19 | 33.64658 | -84.40576 | 1033 ft | 7 kts | 355° |
| 2026-05-05 14:19 | 33.64679 | -84.40637 | 1033 ft | 10 kts | 270° |
| 2026-05-05 14:19 | 33.64679 | -84.40807 | 1034 ft | 49 kts | 270° |
| 2026-05-05 14:19 | 33.64679 | -84.41571 | 1037 ft | 132 kts | 270° |
| 2026-05-05 14:20 | 33.64681 | -84.42932 | 1261 ft | 181 kts | 271° |
| 2026-05-05 14:20 | 33.64779 | -84.44506 | 2123 ft | 195 kts | 282° |
| 2026-05-05 14:20 | 33.65269 | -84.46059 | 3115 ft | 203 kts | 291° |
| 2026-05-05 14:20 | 33.65839 | -84.47637 | 3689 ft | 215 kts | 286° |
| 2026-05-05 14:21 | 33.66372 | -84.49416 | 4065 ft | 238 kts | 285° |
| 2026-05-05 14:21 | 33.66964 | -84.51385 | 4552 ft | 261 kts | 286° |
| 2026-05-05 14:21 | 33.67628 | -84.53446 | 5373 ft | 268 kts | 288° |
| 2026-05-05 14:21 | 33.68459 | -84.55476 | 6267 ft | 276 kts | 302° |
| 2026-05-05 14:22 | 33.69848 | -84.57110 | 7129 ft | 286 kts | 324° |
| 2026-05-05 14:22 | 33.71698 | -84.58039 | 8016 ft | 293 kts | 347° |
| 2026-05-05 14:22 | 33.73750 | -84.58178 | 8917 ft | 297 kts | 359° |
| 2026-05-05 14:22 | 33.75825 | -84.58139 | 9829 ft | 300 kts | 359° |
| 2026-05-05 14:23 | 33.77918 | -84.58104 | 10657 ft | 302 kts | 359° |
| 2026-05-05 14:23 | 33.80029 | -84.58074 | 11477 ft | 304 kts | 358° |
| 2026-05-05 14:23 | 33.82157 | -84.58052 | 12220 ft | 312 kts | 358° |
| 2026-05-05 14:23 | 33.84409 | -84.58063 | 12470 ft | 335 kts | 357° |
| 2026-05-05 14:24 | 33.86811 | -84.58115 | 12792 ft | 353 kts | 356° |
| 2026-05-05 14:24 | 33.89296 | -84.58199 | 13455 ft | 359 kts | 356° |
| 2026-05-05 14:24 | 33.91804 | -84.58293 | 14190 ft | 363 kts | 356° |
| 2026-05-05 14:24 | 33.94336 | -84.58385 | 14888 ft | 365 kts | 355° |
| 2026-05-05 14:25 | 33.96884 | -84.58472 | 15626 ft | 367 kts | 355° |
| 2026-05-05 14:25 | 33.98613 | -84.58529 | 16087 ft | 369 kts | 355° |
| 2026-05-05 14:25 | 34.01185 | -84.58610 | 16785 ft | 372 kts | 355° |
| 2026-05-05 14:25 | 34.03780 | -84.58690 | 17482 ft | 374 kts | 355° |
| 2026-05-05 14:26 | 34.06395 | -84.58768 | 18169 ft | 377 kts | 355° |
| 2026-05-05 14:26 | 34.09020 | -84.58847 | 18784 ft | 379 kts | 355° |
| 2026-05-05 14:26 | 34.11668 | -84.58924 | 19385 ft | 382 kts | 354° |
| 2026-05-05 14:26 | 34.14334 | -84.59002 | 19967 ft | 385 kts | 354° |
| 2026-05-05 14:27 | 34.17020 | -84.59085 | 20564 ft | 387 kts | 354° |
| 2026-05-05 14:27 | 34.19722 | -84.59170 | 21171 ft | 389 kts | 354° |
| 2026-05-05 14:27 | 34.22438 | -84.59253 | 21772 ft | 392 kts | 354° |
| 2026-05-05 14:27 | 34.25176 | -84.59332 | 22355 ft | 394 kts | 354° |
| 2026-05-05 14:28 | 34.27917 | -84.59444 | 22919 ft | 394 kts | 350° |
| 2026-05-05 14:28 | 34.30612 | -84.59969 | 23468 ft | 393 kts | 343° |
| 2026-05-05 14:28 | 34.33294 | -84.60631 | 23966 ft | 394 kts | 343° |
| 2026-05-05 14:28 | 34.35987 | -84.61295 | 24446 ft | 395 kts | 343° |
| 2026-05-05 14:29 | 34.38691 | -84.61961 | 24903 ft | 397 kts | 343° |
| 2026-05-05 14:29 | 34.41400 | -84.62629 | 25368 ft | 398 kts | 343° |
| 2026-05-05 14:29 | 34.44114 | -84.63296 | 25831 ft | 398 kts | 343° |
| 2026-05-05 14:29 | 34.46863 | -84.63970 | 26285 ft | 399 kts | 342° |
| 2026-05-05 14:30 | 34.49588 | -84.64639 | 26741 ft | 399 kts | 342° |
| 2026-05-05 14:30 | 34.52315 | -84.65308 | 27177 ft | 400 kts | 342° |
| 2026-05-05 14:30 | 34.55046 | -84.65978 | 27587 ft | 401 kts | 342° |
| 2026-05-05 14:30 | 34.57785 | -84.66654 | 27977 ft | 402 kts | 342° |
| 2026-05-05 14:31 | 34.60535 | -84.67337 | 28244 ft | 406 kts | 342° |
| 2026-05-05 14:31 | 34.63310 | -84.68025 | 28665 ft | 408 kts | 342° |
| 2026-05-05 14:31 | 34.66096 | -84.68714 | 29064 ft | 409 kts | 342° |
| 2026-05-05 14:31 | 34.68893 | -84.69405 | 29417 ft | 410 kts | 342° |
| 2026-05-05 14:32 | 34.71693 | -84.70097 | 29781 ft | 412 kts | 342° |
| 2026-05-05 14:32 | 34.74503 | -84.70792 | 30113 ft | 413 kts | 341° |
| 2026-05-05 14:32 | 34.77327 | -84.71492 | 30392 ft | 414 kts | 341° |
| 2026-05-05 14:32 | 34.80145 | -84.72192 | 30722 ft | 414 kts | 341° |
| 2026-05-05 14:33 | 34.82968 | -84.72895 | 31038 ft | 413 kts | 341° |
| 2026-05-05 14:33 | 34.85769 | -84.73590 | 31447 ft | 409 kts | 341° |
| 2026-05-05 14:33 | 34.88401 | -84.74239 | 31888 ft | 405 kts | 341° |
| 2026-05-05 14:33 | 34.90832 | -84.74839 | 32295 ft | 401 kts | 341° |
| 2026-05-05 14:34 | 34.93548 | -84.75514 | 32750 ft | 396 kts | 340° |
| 2026-05-05 14:34 | 34.96237 | -84.76185 | 33198 ft | 392 kts | 340° |
| 2026-05-05 14:34 | 34.98891 | -84.76846 | 33653 ft | 387 kts | 340° |
| 2026-05-05 14:34 | 35.01514 | -84.77500 | 34103 ft | 383 kts | 340° |
| 2026-05-05 14:35 | 35.04110 | -84.78149 | 34461 ft | 379 kts | 340° |
| 2026-05-05 14:35 | 35.06683 | -84.78792 | 34807 ft | 376 kts | 339° |
| 2026-05-05 14:35 | 35.09239 | -84.79432 | 35156 ft | 373 kts | 339° |
| 2026-05-05 14:35 | 35.11775 | -84.80070 | 35493 ft | 371 kts | 339° |
| 2026-05-05 14:36 | 35.14294 | -84.80704 | 35853 ft | 368 kts | 339° |
| 2026-05-05 14:36 | 35.16831 | -84.81342 | 36016 ft | 366 kts | 339° |
| 2026-05-05 14:36 | 35.21802 | -84.82583 | 36046 ft | 363 kts | 339° |
| 2026-05-05 14:37 | 35.26744 | -84.83825 | 36044 ft | 363 kts | 339° |
| 2026-05-05 14:37 | 35.31688 | -84.85069 | 36045 ft | 363 kts | 339° |
| 2026-05-05 14:38 | 35.36634 | -84.86313 | 36046 ft | 363 kts | 339° |
| 2026-05-05 14:38 | 35.41585 | -84.87558 | 36079 ft | 363 kts | 338° |
| 2026-05-05 14:39 | 35.46533 | -84.88807 | 36070 ft | 363 kts | 338° |
| 2026-05-05 14:39 | 35.51481 | -84.90059 | 36072 ft | 363 kts | 338° |
| 2026-05-05 14:40 | 35.56424 | -84.91311 | 36061 ft | 363 kts | 338° |
| 2026-05-05 14:40 | 35.61374 | -84.92563 | 36054 ft | 363 kts | 338° |
| 2026-05-05 14:41 | 35.66323 | -84.93816 | 36070 ft | 363 kts | 338° |
| 2026-05-05 14:41 | 35.71265 | -84.95069 | 36058 ft | 362 kts | 338° |
| 2026-05-05 14:42 | 35.76197 | -84.96325 | 36050 ft | 362 kts | 338° |
| 2026-05-05 14:42 | 35.81134 | -84.97579 | 36043 ft | 362 kts | 338° |
| 2026-05-05 14:43 | 35.86072 | -84.98836 | 36062 ft | 362 kts | 338° |
| 2026-05-05 14:43 | 35.91007 | -85.00099 | 36060 ft | 362 kts | 338° |
| 2026-05-05 14:44 | 35.95974 | -85.01375 | 36059 ft | 362 kts | 338° |
| 2026-05-05 14:44 | 36.00913 | -85.02630 | 36060 ft | 363 kts | 338° |
| 2026-05-05 14:45 | 36.05855 | -85.03888 | 36057 ft | 363 kts | 338° |
| 2026-05-05 14:45 | 36.10801 | -85.05156 | 36054 ft | 363 kts | 337° |
| 2026-05-05 14:46 | 36.15757 | -85.06434 | 36068 ft | 364 kts | 337° |
| 2026-05-05 14:46 | 36.20720 | -85.07710 | 36048 ft | 364 kts | 337° |
| 2026-05-05 14:47 | 36.25688 | -85.08989 | 36025 ft | 365 kts | 337° |
| 2026-05-05 14:47 | 36.30659 | -85.10270 | 36018 ft | 365 kts | 337° |
| 2026-05-05 14:48 | 36.35628 | -85.11551 | 36011 ft | 365 kts | 337° |
| 2026-05-05 14:48 | 36.40596 | -85.12837 | 36038 ft | 365 kts | 337° |
| 2026-05-05 14:49 | 36.45567 | -85.14124 | 36013 ft | 365 kts | 337° |
| 2026-05-05 14:49 | 36.50539 | -85.15412 | 36011 ft | 365 kts | 337° |
| 2026-05-05 14:50 | 36.55516 | -85.16691 | 36005 ft | 365 kts | 337° |
| 2026-05-05 14:50 | 36.60487 | -85.17976 | 36001 ft | 365 kts | 337° |
| 2026-05-05 14:51 | 36.65451 | -85.19275 | 36017 ft | 365 kts | 337° |
| 2026-05-05 14:51 | 36.70429 | -85.20580 | 36012 ft | 365 kts | 337° |
| 2026-05-05 14:52 | 36.75408 | -85.21873 | 36004 ft | 366 kts | 337° |
| 2026-05-05 14:52 | 36.80420 | -85.23181 | 36002 ft | 365 kts | 337° |
| 2026-05-05 14:53 | 36.85393 | -85.24481 | 35998 ft | 366 kts | 337° |
| 2026-05-05 14:53 | 36.90373 | -85.25790 | 36009 ft | 366 kts | 337° |
| 2026-05-05 14:54 | 36.95362 | -85.27106 | 35982 ft | 367 kts | 337° |
| 2026-05-05 14:54 | 37.00361 | -85.28423 | 35968 ft | 367 kts | 337° |
| 2026-05-05 14:55 | 37.05367 | -85.29736 | 35966 ft | 368 kts | 337° |
| 2026-05-05 14:55 | 37.10377 | -85.31049 | 35965 ft | 368 kts | 337° |
| 2026-05-05 14:56 | 37.15391 | -85.32365 | 35989 ft | 368 kts | 336° |
| 2026-05-05 14:56 | 37.20412 | -85.33692 | 35963 ft | 369 kts | 336° |
| 2026-05-05 14:57 | 37.25448 | -85.35025 | 35951 ft | 370 kts | 336° |
| 2026-05-05 14:57 | 37.30496 | -85.36365 | 35950 ft | 371 kts | 336° |
| 2026-05-05 14:58 | 37.35553 | -85.37699 | 35943 ft | 372 kts | 336° |
| 2026-05-05 14:58 | 37.39794 | -85.38816 | 35973 ft | 372 kts | 336° |
| 2026-05-05 14:59 | 37.44867 | -85.40162 | 35954 ft | 373 kts | 336° |
| 2026-05-05 14:59 | 37.49948 | -85.41520 | 35940 ft | 374 kts | 336° |
| 2026-05-05 15:00 | 37.55048 | -85.42889 | 35924 ft | 375 kts | 336° |
| 2026-05-05 15:00 | 37.60156 | -85.44254 | 35926 ft | 375 kts | 336° |
| 2026-05-05 15:01 | 37.65261 | -85.45622 | 35951 ft | 376 kts | 335° |
| 2026-05-05 15:01 | 37.70381 | -85.46989 | 35941 ft | 377 kts | 335° |
| 2026-05-05 15:02 | 37.75515 | -85.48355 | 35937 ft | 377 kts | 335° |
| 2026-05-05 15:02 | 37.80647 | -85.49728 | 35936 ft | 377 kts | 335° |
| 2026-05-05 15:03 | 37.85780 | -85.51106 | 35934 ft | 377 kts | 335° |
| 2026-05-05 15:03 | 37.90921 | -85.52496 | 35956 ft | 378 kts | 335° |
| 2026-05-05 15:04 | 37.96077 | -85.53887 | 35935 ft | 379 kts | 335° |
| 2026-05-05 15:04 | 38.01276 | -85.55292 | 35918 ft | 380 kts | 335° |
| 2026-05-05 15:05 | 38.09042 | -85.57390 | 35916 ft | 380 kts | 335° |
| 2026-05-05 15:06 | 38.14279 | -85.58639 | 35928 ft | 386 kts | 338° |
| 2026-05-05 15:06 | 38.19622 | -85.59611 | 35921 ft | 389 kts | 339° |
| 2026-05-05 15:07 | 38.24984 | -85.60556 | 35918 ft | 389 kts | 338° |
| 2026-05-05 15:07 | 38.30334 | -85.61558 | 35919 ft | 389 kts | 338° |
| 2026-05-05 15:08 | 38.35686 | -85.62592 | 35901 ft | 389 kts | 338° |
| 2026-05-05 15:08 | 38.41029 | -85.63634 | 35899 ft | 389 kts | 338° |
| 2026-05-05 15:09 | 38.46384 | -85.64673 | 35903 ft | 389 kts | 338° |
| 2026-05-05 15:09 | 38.51741 | -85.65718 | 35902 ft | 389 kts | 338° |
| 2026-05-05 15:10 | 38.57095 | -85.66753 | 35899 ft | 389 kts | 338° |
| 2026-05-05 15:10 | 38.62466 | -85.67792 | 35881 ft | 391 kts | 338° |
| 2026-05-05 15:11 | 38.67861 | -85.68837 | 35888 ft | 393 kts | 338° |
| 2026-05-05 15:11 | 38.73310 | -85.69903 | 35892 ft | 394 kts | 338° |
| 2026-05-05 15:12 | 38.78739 | -85.70965 | 35892 ft | 395 kts | 338° |
| 2026-05-05 15:12 | 38.84174 | -85.72023 | 35899 ft | 396 kts | 338° |
| 2026-05-05 15:13 | 38.89632 | -85.73086 | 35890 ft | 397 kts | 338° |
| 2026-05-05 15:13 | 38.95098 | -85.74155 | 35883 ft | 398 kts | 338° |
| 2026-05-05 15:14 | 39.00565 | -85.75227 | 35870 ft | 398 kts | 338° |
| 2026-05-05 15:14 | 39.06043 | -85.76307 | 35909 ft | 399 kts | 338° |
| 2026-05-05 15:15 | 39.11544 | -85.77395 | 35881 ft | 400 kts | 338° |
| 2026-05-05 15:15 | 39.17058 | -85.78484 | 35873 ft | 401 kts | 338° |
| 2026-05-05 15:16 | 39.22580 | -85.79578 | 35875 ft | 403 kts | 338° |
| 2026-05-05 15:16 | 39.28127 | -85.80676 | 35902 ft | 403 kts | 338° |
| 2026-05-05 15:17 | 39.33680 | -85.81774 | 35883 ft | 404 kts | 338° |
| 2026-05-05 15:17 | 39.39243 | -85.82876 | 35864 ft | 404 kts | 338° |
| 2026-05-05 15:18 | 39.44811 | -85.83974 | 35866 ft | 405 kts | 338° |
| 2026-05-05 15:18 | 39.50413 | -85.85093 | 35869 ft | 405 kts | 338° |
| 2026-05-05 15:19 | 39.55995 | -85.86217 | 35871 ft | 407 kts | 338° |
| 2026-05-05 15:19 | 39.61604 | -85.87336 | 35863 ft | 409 kts | 338° |
| 2026-05-05 15:20 | 39.67238 | -85.88458 | 35862 ft | 410 kts | 338° |
| 2026-05-05 15:20 | 39.72882 | -85.89587 | 35869 ft | 410 kts | 338° |
| 2026-05-05 15:21 | 39.78523 | -85.90721 | 35881 ft | 411 kts | 338° |
| 2026-05-05 15:21 | 39.84193 | -85.91859 | 35564 ft | 414 kts | 338° |
| 2026-05-05 15:21 | 39.87039 | -85.92433 | 35316 ft | 415 kts | 338° |
| 2026-05-05 15:22 | 39.89907 | -85.93014 | 35059 ft | 418 kts | 338° |
| 2026-05-05 15:22 | 39.92789 | -85.93600 | 34824 ft | 420 kts | 338° |
| 2026-05-05 15:22 | 39.95684 | -85.94188 | 34453 ft | 423 kts | 338° |
| 2026-05-05 15:22 | 39.98602 | -85.94778 | 34008 ft | 426 kts | 338° |
| 2026-05-05 15:23 | 40.01542 | -85.95374 | 33480 ft | 429 kts | 338° |
| 2026-05-05 15:23 | 40.03957 | -85.95865 | 33040 ft | 432 kts | 339° |
| 2026-05-05 15:23 | 40.06878 | -85.96458 | 32521 ft | 435 kts | 339° |
| 2026-05-05 15:23 | 40.09873 | -85.97065 | 31993 ft | 436 kts | 340° |
| 2026-05-05 15:24 | 40.12867 | -85.97666 | 31484 ft | 435 kts | 341° |
| 2026-05-05 15:24 | 40.15854 | -85.98264 | 30984 ft | 434 kts | 341° |
| 2026-05-05 15:24 | 40.18837 | -85.98862 | 30520 ft | 433 kts | 342° |
| 2026-05-05 15:24 | 40.21807 | -85.99460 | 30031 ft | 432 kts | 342° |
| 2026-05-05 15:25 | 40.24772 | -86.00065 | 29493 ft | 430 kts | 342° |
| 2026-05-05 15:25 | 40.27730 | -86.00671 | 28938 ft | 428 kts | 342° |
| 2026-05-05 15:25 | 40.30658 | -86.01269 | 28397 ft | 425 kts | 343° |
| 2026-05-05 15:25 | 40.33572 | -86.01863 | 27865 ft | 422 kts | 343° |
| 2026-05-05 15:26 | 40.36463 | -86.02456 | 27344 ft | 420 kts | 343° |
| 2026-05-05 15:26 | 40.39341 | -86.03041 | 26832 ft | 417 kts | 343° |
| 2026-05-05 15:26 | 40.42196 | -86.03623 | 26364 ft | 414 kts | 343° |
| 2026-05-05 15:26 | 40.45038 | -86.04200 | 25864 ft | 412 kts | 343° |
| 2026-05-05 15:27 | 40.47857 | -86.04779 | 25369 ft | 409 kts | 343° |
| 2026-05-05 15:27 | 40.50658 | -86.05357 | 24896 ft | 406 kts | 343° |
| 2026-05-05 15:27 | 40.53475 | -86.05770 | 24419 ft | 411 kts | 351° |
| 2026-05-05 15:27 | 40.56338 | -86.05724 | 23957 ft | 411 kts | 354° |
| 2026-05-05 15:28 | 40.59187 | -86.05653 | 23502 ft | 409 kts | 354° |
| 2026-05-05 15:28 | 40.62022 | -86.05582 | 22937 ft | 407 kts | 354° |
| 2026-05-05 15:28 | 40.64848 | -86.05514 | 22401 ft | 405 kts | 354° |
| 2026-05-05 15:28 | 40.67654 | -86.05451 | 21876 ft | 403 kts | 354° |
| 2026-05-05 15:29 | 40.70448 | -86.05388 | 21355 ft | 401 kts | 354° |
| 2026-05-05 15:29 | 40.73238 | -86.05325 | 20846 ft | 399 kts | 354° |
| 2026-05-05 15:29 | 40.76002 | -86.05261 | 20348 ft | 397 kts | 354° |
| 2026-05-05 15:29 | 40.78762 | -86.05196 | 19863 ft | 396 kts | 354° |
| 2026-05-05 15:30 | 40.81518 | -86.05132 | 19380 ft | 395 kts | 354° |
| 2026-05-05 15:30 | 40.84257 | -86.05074 | 18916 ft | 393 kts | 354° |
| 2026-05-05 15:30 | 40.86102 | -86.05034 | 18602 ft | 392 kts | 354° |
| 2026-05-05 15:30 | 40.88823 | -86.04971 | 18132 ft | 390 kts | 354° |
| 2026-05-05 15:31 | 40.91493 | -86.05168 | 17603 ft | 378 kts | 341° |
| 2026-05-05 15:31 | 40.93899 | -86.06303 | 17077 ft | 361 kts | 324° |
| 2026-05-05 15:31 | 40.95870 | -86.08236 | 16563 ft | 346 kts | 308° |
| 2026-05-05 15:31 | 40.97294 | -86.10722 | 16057 ft | 335 kts | 293° |
| 2026-05-05 15:32 | 40.98140 | -86.13536 | 15560 ft | 327 kts | 282° |
| 2026-05-05 15:32 | 40.98788 | -86.16415 | 15151 ft | 323 kts | 282° |
| 2026-05-05 15:32 | 40.99429 | -86.19224 | 14899 ft | 316 kts | 282° |
| 2026-05-05 15:32 | 41.00062 | -86.21986 | 14499 ft | 313 kts | 282° |
| 2026-05-05 15:33 | 41.00693 | -86.24736 | 14071 ft | 311 kts | 282° |
| 2026-05-05 15:33 | 41.01319 | -86.27467 | 13629 ft | 310 kts | 282° |
| 2026-05-05 15:33 | 41.01944 | -86.30194 | 13155 ft | 308 kts | 282° |
| 2026-05-05 15:33 | 41.02565 | -86.32901 | 12717 ft | 306 kts | 282° |
| 2026-05-05 15:34 | 41.03179 | -86.35591 | 12278 ft | 304 kts | 282° |
| 2026-05-05 15:34 | 41.03783 | -86.38255 | 11843 ft | 302 kts | 282° |
| 2026-05-05 15:34 | 41.04384 | -86.40909 | 11389 ft | 300 kts | 282° |
| 2026-05-05 15:34 | 41.05051 | -86.43530 | 10954 ft | 301 kts | 289° |
| 2026-05-05 15:35 | 41.06050 | -86.46006 | 10812 ft | 302 kts | 294° |
| 2026-05-05 15:35 | 41.07045 | -86.48417 | 10680 ft | 302 kts | 293° |
| 2026-05-05 15:35 | 41.08054 | -86.50891 | 10558 ft | 302 kts | 293° |
| 2026-05-05 15:35 | 41.09043 | -86.53332 | 10501 ft | 299 kts | 293° |
| 2026-05-05 15:36 | 41.10028 | -86.55759 | 10509 ft | 299 kts | 293° |
| 2026-05-05 15:36 | 41.11009 | -86.58181 | 10511 ft | 297 kts | 293° |
| 2026-05-05 15:36 | 41.11995 | -86.60593 | 10511 ft | 298 kts | 295° |
| 2026-05-05 15:36 | 41.13279 | -86.62774 | 10513 ft | 306 kts | 310° |
| 2026-05-05 15:37 | 41.14900 | -86.64642 | 10517 ft | 308 kts | 313° |
| 2026-05-05 15:37 | 41.16529 | -86.66491 | 10516 ft | 309 kts | 313° |
| 2026-05-05 15:37 | 41.18159 | -86.68341 | 10515 ft | 306 kts | 313° |
| 2026-05-05 15:37 | 41.19736 | -86.70128 | 10512 ft | 289 kts | 312° |
| 2026-05-05 15:38 | 41.21223 | -86.71820 | 10515 ft | 277 kts | 312° |
| 2026-05-05 15:38 | 41.22679 | -86.73490 | 10383 ft | 274 kts | 311° |
| 2026-05-05 15:38 | 41.24113 | -86.75140 | 10202 ft | 272 kts | 311° |
| 2026-05-05 15:38 | 41.25541 | -86.76785 | 10001 ft | 272 kts | 311° |
| 2026-05-05 15:39 | 41.26971 | -86.78429 | 9811 ft | 271 kts | 312° |
| 2026-05-05 15:39 | 41.28394 | -86.80062 | 9606 ft | 270 kts | 312° |
| 2026-05-05 15:39 | 41.29813 | -86.81694 | 9385 ft | 270 kts | 312° |
| 2026-05-05 15:39 | 41.31227 | -86.83322 | 9210 ft | 267 kts | 311° |
| 2026-05-05 15:40 | 41.32629 | -86.84932 | 8997 ft | 265 kts | 311° |
| 2026-05-05 15:40 | 41.34022 | -86.86537 | 8790 ft | 265 kts | 311° |
| 2026-05-05 15:40 | 41.35406 | -86.88137 | 8583 ft | 264 kts | 311° |
| 2026-05-05 15:40 | 41.36800 | -86.89739 | 8377 ft | 264 kts | 312° |
| 2026-05-05 15:41 | 41.38184 | -86.91333 | 8173 ft | 263 kts | 311° |
| 2026-05-05 15:41 | 41.39554 | -86.92955 | 7970 ft | 263 kts | 311° |
| 2026-05-05 15:41 | 41.40906 | -86.94581 | 7770 ft | 262 kts | 311° |
| 2026-05-05 15:41 | 41.42258 | -86.96216 | 7569 ft | 262 kts | 311° |
| 2026-05-05 15:42 | 41.43609 | -86.97851 | 7371 ft | 262 kts | 311° |
| 2026-05-05 15:42 | 41.44958 | -86.99486 | 7175 ft | 262 kts | 310° |
| 2026-05-05 15:42 | 41.46088 | -87.01335 | 6990 ft | 255 kts | 296° |
| 2026-05-05 15:42 | 41.46910 | -87.03451 | 6788 ft | 254 kts | 292° |
| 2026-05-05 15:43 | 41.47691 | -87.05526 | 6584 ft | 254 kts | 292° |
| 2026-05-05 15:43 | 41.48497 | -87.07664 | 6409 ft | 254 kts | 292° |
| 2026-05-05 15:43 | 41.49283 | -87.09742 | 6209 ft | 255 kts | 292° |
| 2026-05-05 15:43 | 41.50090 | -87.11877 | 6062 ft | 255 kts | 293° |
| 2026-05-05 15:44 | 41.50890 | -87.13993 | 6035 ft | 255 kts | 293° |
| 2026-05-05 15:44 | 41.51674 | -87.16115 | 6041 ft | 255 kts | 289° |
| 2026-05-05 15:44 | 41.52322 | -87.18312 | 6039 ft | 254 kts | 288° |
| 2026-05-05 15:44 | 41.52968 | -87.20512 | 6038 ft | 254 kts | 288° |
| 2026-05-05 15:45 | 41.53609 | -87.22691 | 6014 ft | 251 kts | 288° |
| 2026-05-05 15:45 | 41.54245 | -87.24852 | 6013 ft | 250 kts | 288° |
| 2026-05-05 15:45 | 41.54879 | -87.27008 | 6010 ft | 250 kts | 288° |
| 2026-05-05 15:45 | 41.55514 | -87.29169 | 6009 ft | 250 kts | 288° |
| 2026-05-05 15:46 | 41.56148 | -87.31328 | 6008 ft | 250 kts | 288° |
| 2026-05-05 15:46 | 41.56782 | -87.33485 | 6011 ft | 250 kts | 289° |
| 2026-05-05 15:46 | 41.57413 | -87.35642 | 6007 ft | 249 kts | 288° |
| 2026-05-05 15:46 | 41.58045 | -87.37808 | 5850 ft | 250 kts | 289° |
| 2026-05-05 15:47 | 41.58675 | -87.39962 | 5643 ft | 249 kts | 289° |
| 2026-05-05 15:47 | 41.59094 | -87.41395 | 5503 ft | 250 kts | 290° |
| 2026-05-05 15:47 | 41.59941 | -87.44292 | 5230 ft | 251 kts | 290° |
| 2026-05-05 15:47 | 41.60569 | -87.46439 | 5069 ft | 243 kts | 291° |
| 2026-05-05 15:48 | 41.61168 | -87.48486 | 5003 ft | 229 kts | 291° |
| 2026-05-05 15:48 | 41.61724 | -87.50390 | 5005 ft | 214 kts | 291° |
| 2026-05-05 15:48 | 41.62316 | -87.52189 | 5005 ft | 211 kts | 301° |
| 2026-05-05 15:48 | 41.63207 | -87.53745 | 4865 ft | 211 kts | 311° |
| 2026-05-05 15:49 | 41.64209 | -87.55182 | 4620 ft | 210 kts | 314° |
| 2026-05-05 15:49 | 41.65219 | -87.56590 | 4329 ft | 210 kts | 314° |
| 2026-05-05 15:49 | 41.66225 | -87.57991 | 4044 ft | 209 kts | 314° |
| 2026-05-05 15:49 | 41.67227 | -87.59390 | 3756 ft | 207 kts | 314° |
| 2026-05-05 15:50 | 41.68216 | -87.60773 | 3477 ft | 205 kts | 314° |
| 2026-05-05 15:50 | 41.69211 | -87.62163 | 3197 ft | 203 kts | 315° |
| 2026-05-05 15:50 | 41.70176 | -87.63513 | 2914 ft | 202 kts | 315° |
| 2026-05-05 15:50 | 41.71146 | -87.64870 | 2635 ft | 201 kts | 314° |
| 2026-05-05 15:51 | 41.72103 | -87.66209 | 2355 ft | 191 kts | 314° |
| 2026-05-05 15:51 | 41.72988 | -87.67450 | 2122 ft | 176 kts | 314° |
| 2026-05-05 15:51 | 41.73799 | -87.68586 | 1886 ft | 159 kts | 314° |
| 2026-05-05 15:51 | 41.74520 | -87.69596 | 1665 ft | 141 kts | 313° |
| 2026-05-05 15:52 | 41.75176 | -87.70517 | 1469 ft | 134 kts | 314° |
| 2026-05-05 15:52 | 41.75814 | -87.71410 | 1293 ft | 133 kts | 314° |
| 2026-05-05 15:52 | 41.76447 | -87.72302 | 1094 ft | 133 kts | 312° |
| 2026-05-05 15:52 | 41.77079 | -87.73198 | 929 ft | 133 kts | 313° |
| 2026-05-05 15:53 | 41.77721 | -87.74094 | 745 ft | 133 kts | 312° |
| 2026-05-05 15:53 | 41.78350 | -87.74975 | 631 ft | 119 kts | 314° |
| 2026-05-05 15:53 | 41.78764 | -87.75548 | 628 ft | 44 kts | 311° |
| 2026-05-05 15:53 | 41.78924 | -87.75734 | 632 ft | 27 kts | 329° |
| 2026-05-05 15:54 | 41.79074 | -87.75820 | 629 ft | 18 kts | 352° |
| 2026-05-05 15:54 | 41.79125 | -87.75712 | 629 ft | 17 kts | 91° |
| 2026-05-05 15:54 | 41.79128 | -87.75535 | 629 ft | 21 kts | 88° |
| 2026-05-05 15:54 | 41.79133 | -87.75325 | 629 ft | 24 kts | 89° |
| 2026-05-05 15:55 | 41.79134 | -87.75092 | 637 ft | 23 kts | 90° |
| 2026-05-05 15:55 | 41.79098 | -87.74908 | 629 ft | 21 kts | 139° |
| 2026-05-05 15:55 | 41.78999 | -87.74799 | 629 ft | 17 kts | 171° |
| 2026-05-05 15:55 | 41.78871 | -87.74792 | 630 ft | 20 kts | 178° |
| 2026-05-05 15:56 | 41.78717 | -87.74789 | 635 ft | 24 kts | 179° |
| 2026-05-05 15:56 | 41.78575 | -87.74736 | 629 ft | 23 kts | 144° |
| 2026-05-05 15:56 | 41.78485 | -87.74610 | 629 ft | 10 kts | 105° |
| 2026-05-05 15:56 | 41.78529 | -87.74550 | 631 ft | 14 kts | 41° |
| 2026-05-05 15:57 | 41.78621 | -87.74426 | 634 ft | 19 kts | 50° |
| 2026-05-05 15:57 | 41.78655 | -87.74307 | 629 ft | 11 kts | 112° |
| 2026-05-05 15:57 | 41.78631 | -87.74260 | 631 ft | 0 kts | 127° |